createdAt,value
2019-03-31T00:00:25.889Z,58.599998
2019-03-31T00:01:25.997Z,58.200001
2019-03-31T00:02:26.141Z,50.700001
2019-03-31T00:03:26.282Z,53.099998
2019-03-31T00:04:26.417Z,53.099998
2019-03-31T00:05:26.548Z,50.299999
2019-03-31T00:06:26.636Z,50.599998
2019-03-31T00:07:26.756Z,50.599998
2019-03-31T00:08:26.860Z,51.299999
2019-03-31T00:09:26.956Z,47.400002
2019-03-31T00:10:27.068Z,45.200001
2019-03-31T00:11:27.166Z,44.099998
2019-03-31T00:12:27.305Z,48.900002
2019-03-31T00:13:27.406Z,42.700001
2019-03-31T00:14:27.512Z,46.200001
2019-03-31T00:15:27.618Z,50.099998
2019-03-31T00:16:27.745Z,47.799999
2019-03-31T00:17:27.877Z,49.099998
2019-03-31T00:18:27.978Z,48.400002
2019-03-31T00:19:28.066Z,53.599998
2019-03-31T00:20:28.167Z,49.799999
2019-03-31T00:21:28.268Z,54.200001
2019-03-31T00:22:28.400Z,55.099998
2019-03-31T00:23:28.501Z,55.900002
2019-03-31T00:24:28.610Z,57
2019-03-31T00:25:28.718Z,57.5
2019-03-31T00:26:28.821Z,55.099998
2019-03-31T00:27:29.013Z,54.099998
2019-03-31T00:28:28.950Z,51.900002
2019-03-31T00:29:29.056Z,52.299999
2019-03-31T00:30:29.161Z,52.599998
2019-03-31T00:31:29.234Z,56
2019-03-31T00:32:29.401Z,52.599998
2019-03-31T00:33:29.366Z,52.5
2019-03-31T00:34:29.487Z,54.599998
2019-03-31T00:35:29.599Z,52.900002
2019-03-31T00:36:29.734Z,51.299999
2019-03-31T00:37:29.924Z,54.099998
2019-03-31T00:38:29.893Z,52.400002
2019-03-31T00:39:30.040Z,57.599998
2019-03-31T00:40:30.177Z,56.900002
2019-03-31T00:41:30.290Z,54.200001
2019-03-31T00:42:30.440Z,56.099998
2019-03-31T00:43:30.547Z,55.599998
2019-03-31T00:44:30.658Z,53.299999
2019-03-31T00:45:30.770Z,58
2019-03-31T00:46:31.904Z,54.299999
2019-03-31T00:47:30.997Z,56.299999
2019-03-31T00:48:31.178Z,57.700001
2019-03-31T00:49:31.112Z,56.099998
2019-03-31T00:50:31.248Z,59.5
2019-03-31T00:51:31.350Z,57.599998
2019-03-31T00:52:31.544Z,59
2019-03-31T00:53:31.487Z,62.400002
2019-03-31T00:54:31.587Z,63.900002
2019-03-31T00:55:31.691Z,66.099998
2019-03-31T00:56:31.805Z,68.300003
2019-03-31T00:57:31.988Z,64.300003
2019-03-31T00:58:31.990Z,65.800003
2019-03-31T00:59:31.928Z,66.199997
2019-03-31T01:00:32.039Z,71.900002
2019-03-31T01:01:36.560Z,67.900002
2019-03-31T01:02:33.232Z,65.800003
2019-03-31T01:03:32.340Z,68.400002
2019-03-31T01:04:32.460Z,66.199997
2019-03-31T01:05:32.554Z,66.800003
2019-03-31T01:06:32.688Z,67.300003
2019-03-31T01:07:32.843Z,69.900002
2019-03-31T01:08:32.957Z,75
2019-03-31T01:09:33.065Z,70.5
2019-03-31T01:10:33.180Z,74.699997
2019-03-31T01:11:33.384Z,73.5
2019-03-31T01:12:33.398Z,72.5
2019-03-31T01:13:33.328Z,72.199997
2019-03-31T01:14:33.494Z,74.400002
2019-03-31T01:15:33.595Z,74.099998
2019-03-31T01:16:33.693Z,73
2019-03-31T01:17:33.867Z,76.699997
2019-03-31T01:18:33.797Z,74.099998
2019-03-31T01:19:33.927Z,75.199997
2019-03-31T01:20:34.018Z,77.599998
2019-03-31T01:21:34.114Z,74.199997
2019-03-31T01:22:34.276Z,77.099998
2019-03-31T01:23:34.207Z,75.300003
2019-03-31T01:24:34.338Z,75.300003
2019-03-31T01:25:34.495Z,75.400002
2019-03-31T01:26:34.598Z,75.800003
2019-03-31T01:27:34.761Z,72.099998
2019-03-31T01:28:34.702Z,75.400002
2019-03-31T01:29:34.827Z,75.400002
2019-03-31T01:30:34.941Z,74
2019-03-31T01:31:35.046Z,75.199997
2019-03-31T01:32:35.180Z,77
2019-03-31T01:33:35.286Z,76.699997
2019-03-31T01:34:35.407Z,80.099998
2019-03-31T01:35:35.515Z,80.400002
2019-03-31T01:36:35.629Z,79.5
2019-03-31T01:37:35.763Z,78.5
2019-03-31T01:38:35.887Z,81.199997
2019-03-31T01:39:35.984Z,79
2019-03-31T01:40:36.097Z,81.5
2019-03-31T01:41:36.207Z,81
2019-03-31T01:42:36.357Z,88
2019-03-31T01:43:36.483Z,79.099998
2019-03-31T01:44:36.622Z,86.900002
2019-03-31T01:45:36.721Z,87.099998
2019-03-31T01:46:36.829Z,85.900002
2019-03-31T01:47:36.969Z,82
2019-03-31T01:48:37.586Z,85.800003
2019-03-31T01:49:37.187Z,88.5
2019-03-31T01:50:37.291Z,84.900002
2019-03-31T01:51:37.387Z,86.900002
2019-03-31T01:52:37.511Z,90.800003
2019-03-31T01:53:37.949Z,89.199997
2019-03-31T01:54:37.721Z,87.599998
2019-03-31T01:55:37.841Z,87.800003
2019-03-31T01:56:37.981Z,89.800003
2019-03-31T01:57:38.087Z,89.199997
2019-03-31T01:58:38.214Z,89.400002
2019-03-31T01:59:38.344Z,84
2019-03-31T02:00:38.446Z,81.800003
2019-03-31T02:01:38.558Z,83.800003
2019-03-31T02:02:38.665Z,83.599998
2019-03-31T02:03:38.797Z,85.400002
2019-03-31T02:04:38.896Z,90.300003
2019-03-31T02:05:39.001Z,88.400002
2019-03-31T02:06:39.096Z,90.5
2019-03-31T02:07:39.209Z,88.599998
2019-03-31T02:08:39.358Z,88.400002
2019-03-31T02:09:39.486Z,88.199997
2019-03-31T02:10:39.600Z,89.699997
2019-03-31T02:11:39.703Z,89
2019-03-31T02:12:39.803Z,94.800003
2019-03-31T02:13:39.934Z,87.300003
2019-03-31T02:14:40.037Z,86
2019-03-31T02:15:40.159Z,94.400002
2019-03-31T02:16:40.263Z,87.400002
2019-03-31T02:17:40.360Z,91.5
2019-03-31T02:18:40.483Z,88.800003
2019-03-31T02:19:40.590Z,95.099998
2019-03-31T02:20:40.695Z,91.099998
2019-03-31T02:21:40.803Z,89
2019-03-31T02:22:40.906Z,92
2019-03-31T02:23:41.043Z,89.300003
2019-03-31T02:24:41.154Z,96.800003
2019-03-31T02:25:41.275Z,90.400002
2019-03-31T02:26:41.389Z,96.099998
2019-03-31T02:27:41.487Z,100.19999
2019-03-31T02:28:41.620Z,91.699997
2019-03-31T02:29:41.716Z,99.800003
2019-03-31T02:30:41.823Z,89
2019-03-31T02:31:41.940Z,91.5
2019-03-31T02:32:42.039Z,90
2019-03-31T02:33:42.193Z,100.19999
2019-03-31T02:34:42.288Z,92.699997
2019-03-31T02:35:42.392Z,96.599998
2019-03-31T02:36:42.501Z,101.9
2019-03-31T02:37:42.655Z,97.400002
2019-03-31T02:38:42.826Z,94.400002
2019-03-31T02:39:42.754Z,96.300003
2019-03-31T02:40:42.857Z,94.400002
2019-03-31T02:41:42.960Z,100.19999
2019-03-31T02:42:43.064Z,96.599998
2019-03-31T02:43:43.467Z,97.5
2019-03-31T02:44:43.236Z,90.699997
2019-03-31T02:45:43.335Z,95.599998
2019-03-31T02:46:43.439Z,95.400002
2019-03-31T02:47:43.539Z,102.19999
2019-03-31T02:48:43.708Z,101.09999
2019-03-31T02:49:43.647Z,106.4
2019-03-31T02:50:43.818Z,104
2019-03-31T02:51:43.844Z,105.59999
2019-03-31T02:52:43.958Z,107.09999
2019-03-31T02:53:44.113Z,109.3
2019-03-31T02:54:44.214Z,106.09999
2019-03-31T02:55:44.326Z,106.5
2019-03-31T02:56:44.416Z,101.4
2019-03-31T02:57:44.513Z,103.5
2019-03-31T02:58:44.653Z,103.09999
2019-03-31T02:59:44.751Z,107.59999
2019-03-31T03:00:44.888Z,107.4
2019-03-31T03:01:44.967Z,107.5
2019-03-31T03:02:45.036Z,106
2019-03-31T03:03:45.196Z,105.5
2019-03-31T03:04:45.130Z,107.09999
2019-03-31T03:05:45.240Z,113.3
2019-03-31T03:06:45.347Z,103.8
2019-03-31T03:07:45.457Z,107.69999
2019-03-31T03:08:45.613Z,111.9
2019-03-31T03:09:45.709Z,105.8
2019-03-31T03:10:45.820Z,111.19999
2019-03-31T03:11:45.960Z,109.8
2019-03-31T03:12:46.067Z,109.9
2019-03-31T03:13:46.239Z,111.8
2019-03-31T03:14:46.176Z,113.8
2019-03-31T03:15:46.295Z,114.09999
2019-03-31T03:16:46.418Z,113.4
2019-03-31T03:17:46.520Z,112.19999
2019-03-31T03:18:46.651Z,117.9
2019-03-31T03:19:46.760Z,119.59999
2019-03-31T03:20:46.853Z,116.3
2019-03-31T03:21:46.964Z,118.5
2019-03-31T03:22:47.074Z,115.69999
2019-03-31T03:23:47.255Z,121.19999
2019-03-31T03:24:47.219Z,120.59999
2019-03-31T03:25:55.432Z,119.19999
2019-03-31T03:26:48.384Z,128.3
2019-03-31T03:27:47.488Z,122.59999
2019-03-31T03:28:47.740Z,121.69999
2019-03-31T03:29:47.682Z,129.39999
2019-03-31T03:30:47.922Z,126.5
2019-03-31T03:31:47.904Z,130.3
2019-03-31T03:33:11.711Z,127.8
2019-03-31T03:33:49.112Z,131.89999
2019-03-31T03:34:48.303Z,137.3
2019-03-31T03:35:48.341Z,134.1
2019-03-31T03:36:48.434Z,139.19999
2019-03-31T03:37:48.552Z,136.39999
2019-03-31T03:38:48.703Z,138.3
2019-03-31T03:39:48.815Z,135.69999
2019-03-31T03:40:48.914Z,135.8
2019-03-31T03:41:49.029Z,136.8
2019-03-31T03:42:49.173Z,135
2019-03-31T03:43:55.516Z,138
2019-03-31T03:44:50.374Z,137.8
2019-03-31T03:45:49.479Z,136.1
2019-03-31T03:46:49.583Z,135.39999
2019-03-31T03:47:49.699Z,137
2019-03-31T03:48:50.803Z,134.8
2019-03-31T03:49:49.982Z,133.8
2019-03-31T03:50:50.216Z,139.69999
2019-03-31T03:51:50.230Z,139.89999
2019-03-31T03:52:50.348Z,140.6
2019-03-31T03:53:50.500Z,138.3
2019-03-31T03:54:50.593Z,140
2019-03-31T03:55:50.693Z,140.19999
2019-03-31T03:56:50.793Z,134.6
2019-03-31T03:57:50.901Z,141.19999
2019-03-31T03:58:51.023Z,136.5
2019-03-31T03:59:51.173Z,138.1
2019-03-31T04:00:51.286Z,140.5
2019-03-31T04:01:51.396Z,141.69999
2019-03-31T04:02:51.496Z,142.1
2019-03-31T04:03:51.621Z,139.19999
2019-03-31T04:04:51.750Z,141.3
2019-03-31T04:05:51.846Z,143.89999
2019-03-31T04:06:51.942Z,137.69999
2019-03-31T04:07:52.054Z,141
2019-03-31T04:08:52.145Z,139.39999
2019-03-31T04:09:52.272Z,137.8
2019-03-31T04:10:52.375Z,146.39999
2019-03-31T04:11:52.483Z,143.6
2019-03-31T04:12:52.649Z,140.3
2019-03-31T04:13:52.719Z,135
2019-03-31T04:14:52.867Z,140.6
2019-03-31T04:15:52.956Z,141.5
2019-03-31T04:16:53.088Z,132.5
2019-03-31T04:17:53.189Z,142.1
2019-03-31T04:18:53.293Z,145.5
2019-03-31T04:19:53.432Z,135.5
2019-03-31T04:20:53.582Z,139.6
2019-03-31T04:21:53.648Z,145.5
2019-03-31T04:22:53.764Z,133.39999
2019-03-31T04:23:53.884Z,128.19999
2019-03-31T04:24:53.991Z,135.3
2019-03-31T04:25:54.125Z,141
2019-03-31T04:26:54.233Z,145.1
2019-03-31T04:27:54.460Z,135.6
2019-03-31T04:28:54.448Z,142.8
2019-03-31T04:29:54.599Z,137
2019-03-31T04:30:54.707Z,134.39999
2019-03-31T04:31:54.807Z,132.6
2019-03-31T04:32:54.909Z,139.6
2019-03-31T04:33:54.979Z,133.69999
2019-03-31T04:34:55.106Z,135.89999
2019-03-31T04:35:55.226Z,131
2019-03-31T04:36:55.336Z,139.1
2019-03-31T04:37:55.441Z,131.89999
2019-03-31T04:38:59.804Z,126.5
2019-03-31T04:39:56.687Z,131.5
2019-03-31T04:40:55.789Z,127.3
2019-03-31T04:41:55.900Z,130.8
2019-03-31T04:42:56.027Z,128.5
2019-03-31T04:43:56.129Z,128.1
2019-03-31T04:44:56.321Z,130.1
2019-03-31T04:45:56.260Z,129.89999
2019-03-31T04:46:56.372Z,127.3
2019-03-31T04:47:56.497Z,128.6
2019-03-31T04:48:56.612Z,130.3
2019-03-31T04:49:57.012Z,132.19999
2019-03-31T04:50:56.778Z,126.8
2019-03-31T04:51:56.906Z,123.19999
2019-03-31T04:52:57.048Z,126
2019-03-31T04:53:57.156Z,127.59999
2019-03-31T04:54:57.288Z,130
2019-03-31T04:55:57.395Z,127
2019-03-31T04:56:57.503Z,130.19999
2019-03-31T04:57:57.602Z,134
2019-03-31T04:58:57.720Z,132.3
2019-03-31T04:59:57.863Z,119.5
2019-03-31T05:00:57.972Z,124.09999
2019-03-31T05:01:58.065Z,125.09999
2019-03-31T05:02:58.179Z,127.59999
2019-03-31T05:04:04.799Z,126.5
2019-03-31T05:04:59.383Z,127.69999
2019-03-31T05:05:58.487Z,129.3
2019-03-31T05:06:58.636Z,120.9
2019-03-31T05:07:58.795Z,119.69999
2019-03-31T05:08:58.950Z,126.19999
2019-03-31T05:09:59.154Z,123.8
2019-03-31T05:10:59.124Z,120.5
2019-03-31T05:11:59.259Z,133
2019-03-31T05:12:59.284Z,121.69999
2019-03-31T05:13:59.280Z,126.9
2019-03-31T05:14:59.301Z,118.69999
2019-03-31T05:15:59.297Z,123.5
2019-03-31T05:16:59.333Z,127.9
2019-03-31T05:17:59.437Z,124.3
2019-03-31T05:18:59.491Z,122.9
2019-03-31T05:19:59.595Z,127
2019-03-31T05:20:59.657Z,124.59999
2019-03-31T05:21:59.700Z,124
2019-03-31T05:22:59.729Z,117.4
2019-03-31T05:23:59.771Z,117.09999
2019-03-31T05:24:59.872Z,120.19999
2019-03-31T05:25:59.930Z,120.8
2019-03-31T05:27:00.014Z,111.19999
2019-03-31T05:28:00.094Z,115.3
2019-03-31T05:29:00.139Z,111.59999
2019-03-31T05:30:00.395Z,109.59999
2019-03-31T05:31:00.356Z,110.19999
2019-03-31T05:32:00.401Z,108.19999
2019-03-31T05:33:00.458Z,102.3
2019-03-31T05:34:00.509Z,101.3
2019-03-31T05:35:00.605Z,100.4
2019-03-31T05:36:00.629Z,97.599998
2019-03-31T05:37:00.770Z,98.699997
2019-03-31T05:38:00.804Z,99.900002
2019-03-31T05:39:00.857Z,92.099998
2019-03-31T05:40:00.991Z,92.900002
2019-03-31T05:41:01.047Z,90.5
2019-03-31T05:42:01.108Z,90.900002
2019-03-31T05:43:01.150Z,89.800003
2019-03-31T05:44:05.732Z,85.599998
2019-03-31T05:45:02.313Z,84.699997
2019-03-31T05:46:01.365Z,88.099998
2019-03-31T05:47:01.451Z,91.099998
2019-03-31T05:48:01.534Z,84.5
2019-03-31T05:49:01.666Z,84.300003
2019-03-31T05:50:01.686Z,89.300003
2019-03-31T05:51:01.737Z,87.699997
2019-03-31T05:52:01.780Z,86.800003
2019-03-31T05:53:01.852Z,85.099998
2019-03-31T05:54:01.896Z,81.199997
2019-03-31T05:55:01.964Z,81.400002
2019-03-31T05:56:02.024Z,77.699997
2019-03-31T05:57:02.077Z,76.599998
2019-03-31T05:58:02.125Z,76.599998
2019-03-31T05:59:02.187Z,80.199997
2019-03-31T06:00:02.222Z,77.199997
2019-03-31T06:01:02.295Z,78.5
2019-03-31T06:02:02.345Z,79.400002
2019-03-31T06:03:02.394Z,80.199997
2019-03-31T06:04:02.470Z,76.699997
2019-03-31T06:05:02.513Z,79.900002
2019-03-31T06:06:02.578Z,75.900002
2019-03-31T06:07:02.648Z,76.099998
2019-03-31T06:08:02.740Z,83.400002
2019-03-31T06:09:02.807Z,75.800003
2019-03-31T06:10:02.869Z,74.5
2019-03-31T06:11:02.947Z,77.099998
2019-03-31T06:12:03.026Z,78.5
2019-03-31T06:13:03.068Z,77
2019-03-31T06:14:03.106Z,78.599998
2019-03-31T06:15:03.190Z,75.599998
2019-03-31T06:16:03.261Z,82.5
2019-03-31T06:17:03.311Z,72
2019-03-31T06:18:03.370Z,75.800003
2019-03-31T06:19:03.429Z,74.5
2019-03-31T06:20:03.484Z,77.900002
2019-03-31T06:21:03.593Z,78.800003
2019-03-31T06:22:03.664Z,81.400002
2019-03-31T06:23:03.706Z,76.099998
2019-03-31T06:24:03.747Z,79.900002
2019-03-31T06:25:03.815Z,78.199997
2019-03-31T06:26:03.912Z,75.699997
2019-03-31T06:27:03.947Z,78.199997
2019-03-31T06:28:04.004Z,79.199997
2019-03-31T06:29:04.068Z,74.400002
2019-03-31T06:30:04.169Z,77.900002
2019-03-31T06:31:04.488Z,72.900002
2019-03-31T06:32:04.366Z,75.699997
2019-03-31T06:33:04.397Z,75.800003
2019-03-31T06:34:04.440Z,77.5
2019-03-31T06:35:04.485Z,73.5
2019-03-31T06:36:04.603Z,74.699997
2019-03-31T06:37:04.653Z,75.800003
2019-03-31T06:38:04.703Z,74
2019-03-31T06:39:04.771Z,80.800003
2019-03-31T06:40:04.820Z,72.5
2019-03-31T06:41:04.934Z,71
2019-03-31T06:42:04.978Z,74.300003
2019-03-31T06:43:05.066Z,71.599998
2019-03-31T06:44:05.116Z,75.900002
2019-03-31T06:45:05.166Z,71.400002
2019-03-31T06:46:05.412Z,72.5
2019-03-31T06:47:05.370Z,71
2019-03-31T06:48:05.424Z,73.199997
2019-03-31T06:49:05.466Z,69.300003
2019-03-31T06:50:05.502Z,75.699997
2019-03-31T06:51:05.612Z,73.599998
2019-03-31T06:52:05.666Z,73
2019-03-31T06:53:05.717Z,74.699997
2019-03-31T06:54:05.771Z,77.699997
2019-03-31T06:55:05.819Z,75.5
2019-03-31T06:56:05.941Z,74.5
2019-03-31T06:57:05.997Z,73.099998
2019-03-31T06:58:06.034Z,74.599998
2019-03-31T06:59:06.083Z,74
2019-03-31T07:00:06.173Z,77.900002
2019-03-31T07:01:06.286Z,78.199997
2019-03-31T07:02:06.322Z,82.400002
2019-03-31T07:03:06.366Z,81.400002
2019-03-31T07:04:06.409Z,82.099998
2019-03-31T07:05:06.431Z,78.400002
2019-03-31T07:06:06.535Z,78.199997
2019-03-31T07:07:06.578Z,82.800003
2019-03-31T07:08:06.623Z,83
2019-03-31T07:09:06.659Z,85.300003
2019-03-31T07:10:06.710Z,83.599998
2019-03-31T07:11:06.815Z,79.400002
2019-03-31T07:12:06.901Z,83
2019-03-31T07:13:06.951Z,81.199997
2019-03-31T07:14:06.996Z,76.199997
2019-03-31T07:15:07.043Z,78.5
2019-03-31T07:16:07.082Z,74.199997
2019-03-31T07:17:07.154Z,75.599998
2019-03-31T07:18:07.205Z,77.199997
2019-03-31T07:19:07.256Z,77.900002
2019-03-31T07:20:07.316Z,76.400002
2019-03-31T07:21:07.387Z,77.900002
2019-03-31T07:22:07.452Z,72
2019-03-31T07:23:07.507Z,70.599998
2019-03-31T07:24:07.566Z,72.699997
2019-03-31T07:25:07.632Z,69.599998
2019-03-31T07:26:07.680Z,70.900002
2019-03-31T07:27:07.748Z,68.400002
2019-03-31T07:28:07.854Z,71.300003
2019-03-31T07:29:07.921Z,68.5
2019-03-31T07:30:08.000Z,67.5
2019-03-31T07:31:08.068Z,65.599998
2019-03-31T07:32:08.138Z,69.699997
2019-03-31T07:33:08.188Z,68
2019-03-31T07:34:08.225Z,66.699997
2019-03-31T07:35:18.071Z,65.099998
2019-03-31T07:36:09.273Z,71.599998
2019-03-31T07:37:08.338Z,67.400002
2019-03-31T07:38:08.378Z,64.400002
2019-03-31T07:39:08.689Z,66
2019-03-31T07:40:08.603Z,68.699997
2019-03-31T07:41:12.783Z,66
2019-03-31T07:42:10.113Z,66.900002
2019-03-31T07:43:08.783Z,66.199997
2019-03-31T07:44:08.637Z,66.900002
2019-03-31T07:45:08.683Z,70.199997
2019-03-31T07:46:08.741Z,65.599998
2019-03-31T07:47:08.873Z,64.800003
2019-03-31T07:48:08.924Z,61.5
2019-03-31T07:49:08.972Z,60.799999
2019-03-31T07:50:09.018Z,64.400002
2019-03-31T07:51:09.106Z,61.700001
2019-03-31T07:52:09.183Z,66.900002
2019-03-31T07:53:09.234Z,60
2019-03-31T07:54:09.373Z,59.700001
2019-03-31T07:55:09.424Z,57
2019-03-31T07:56:09.469Z,56.900002
2019-03-31T07:57:09.567Z,52.099998
2019-03-31T07:58:09.612Z,55.700001
2019-03-31T07:59:09.689Z,56.599998
2019-03-31T08:00:09.709Z,57.400002
2019-03-31T08:01:09.785Z,51.400002
2019-03-31T08:02:09.863Z,50.700001
2019-03-31T08:03:09.899Z,48.299999
2019-03-31T08:04:10.065Z,48.5
2019-03-31T08:05:10.153Z,49.200001
2019-03-31T08:06:10.207Z,45.400002
2019-03-31T08:07:10.250Z,48.900002
2019-03-31T08:08:10.270Z,43.400002
2019-03-31T08:09:10.369Z,43.400002
2019-03-31T08:10:10.377Z,41.700001
2019-03-31T08:11:10.457Z,41.799999
2019-03-31T08:12:10.519Z,42.299999
2019-03-31T08:13:10.610Z,39
2019-03-31T08:14:10.628Z,40.5
2019-03-31T08:15:10.715Z,40.200001
2019-03-31T08:16:10.749Z,39.799999
2019-03-31T08:17:10.858Z,37.299999
2019-03-31T08:18:10.905Z,36.299999
2019-03-31T08:19:10.950Z,37.900002
2019-03-31T08:20:10.947Z,37.400002
2019-03-31T08:21:10.999Z,35.400002
2019-03-31T08:22:11.024Z,31.5
2019-03-31T08:23:11.044Z,31.1
2019-03-31T08:24:11.196Z,29.799999
2019-03-31T08:25:11.217Z,27.6
2019-03-31T08:26:11.252Z,30.200001
2019-03-31T08:27:11.414Z,28.299999
2019-03-31T08:28:11.388Z,30.1
2019-03-31T08:29:11.583Z,32.5
2019-03-31T08:30:12.568Z,28.200001
2019-03-31T08:31:11.603Z,27.6
2019-03-31T08:32:11.707Z,27
2019-03-31T08:33:11.746Z,25.799999
2019-03-31T08:34:11.884Z,25.1
2019-03-31T08:35:11.933Z,28.1
2019-03-31T08:36:12.427Z,29.799999
2019-03-31T08:37:12.025Z,28.299999
2019-03-31T08:38:12.092Z,29.799999
2019-03-31T08:39:12.128Z,28.6
2019-03-31T08:40:12.211Z,32.799999
2019-03-31T08:41:12.287Z,26.9
2019-03-31T08:42:12.388Z,29.1
2019-03-31T08:43:12.481Z,30.1
2019-03-31T08:44:12.559Z,29.799999
2019-03-31T08:45:12.565Z,28.299999
2019-03-31T08:46:12.564Z,28.299999
2019-03-31T08:47:12.536Z,27.9
2019-03-31T08:48:12.565Z,29.799999
2019-03-31T08:49:12.644Z,30.799999
2019-03-31T08:50:12.693Z,27.1
2019-03-31T08:51:12.674Z,26.1
2019-03-31T08:52:12.795Z,25.799999
2019-03-31T08:53:12.931Z,24.200001
2019-03-31T08:54:13.006Z,23.700001
2019-03-31T08:55:13.013Z,24.9
2019-03-31T08:56:13.042Z,27.1
2019-03-31T08:57:13.066Z,25.299999
2019-03-31T08:58:13.134Z,24.9
2019-03-31T08:59:13.214Z,27.9
2019-03-31T09:00:13.203Z,27.5
2019-03-31T09:01:13.356Z,28.200001
2019-03-31T09:02:13.411Z,25.6
2019-03-31T09:03:13.541Z,25.200001
2019-03-31T09:04:13.596Z,25.700001
2019-03-31T09:05:13.649Z,22.1
2019-03-31T09:06:13.705Z,24.299999
2019-03-31T09:07:13.792Z,27.6
2019-03-31T09:08:13.835Z,24.4
2019-03-31T09:09:13.877Z,26.700001
2019-03-31T09:10:13.898Z,25.200001
2019-03-31T09:11:13.985Z,25.5
2019-03-31T09:12:14.001Z,24
2019-03-31T09:13:14.187Z,24.299999
2019-03-31T09:14:14.237Z,23.6
2019-03-31T09:15:14.297Z,23.799999
2019-03-31T09:16:14.332Z,26.799999
2019-03-31T09:17:14.386Z,25
2019-03-31T09:18:14.455Z,24
2019-03-31T09:19:14.507Z,23.700001
2019-03-31T09:20:14.553Z,24.299999
2019-03-31T09:21:14.612Z,24.5
2019-03-31T09:22:14.657Z,28.1
2019-03-31T09:23:14.720Z,24.5
2019-03-31T09:24:14.766Z,24.9
2019-03-31T09:25:14.839Z,25.6
2019-03-31T09:26:14.885Z,27.200001
2019-03-31T09:27:14.933Z,24.299999
2019-03-31T09:28:15.006Z,24.200001
2019-03-31T09:29:15.061Z,25.1
2019-03-31T09:30:15.107Z,24.200001
2019-03-31T09:31:15.166Z,28.299999
2019-03-31T09:32:15.278Z,23.6
2019-03-31T09:33:15.341Z,26.1
2019-03-31T09:34:15.391Z,23.6
2019-03-31T09:35:15.444Z,24.299999
2019-03-31T09:36:16.781Z,22.9
2019-03-31T09:37:16.579Z,27.6
2019-03-31T09:38:15.588Z,21.6
2019-03-31T09:39:15.630Z,20.5
2019-03-31T09:40:15.694Z,19.200001
2019-03-31T09:41:15.751Z,25.4
2019-03-31T09:42:15.815Z,19.9
2019-03-31T09:43:15.904Z,19.4
2019-03-31T09:44:15.935Z,20.700001
2019-03-31T09:45:16.007Z,19.5
2019-03-31T09:46:16.402Z,22.5
2019-03-31T09:47:16.116Z,20.700001
2019-03-31T09:48:16.229Z,22.700001
2019-03-31T09:49:16.279Z,21.9
2019-03-31T09:50:17.356Z,20.9
2019-03-31T09:51:17.472Z,21.5
2019-03-31T09:52:17.554Z,18.9
2019-03-31T09:53:16.745Z,20.1
2019-03-31T09:54:16.622Z,18.799999
2019-03-31T09:55:16.654Z,21.700001
2019-03-31T09:56:16.694Z,17.5
2019-03-31T09:57:16.751Z,17.9
2019-03-31T09:58:16.876Z,18
2019-03-31T09:59:16.875Z,15.7
2019-03-31T10:00:16.879Z,17.6
2019-03-31T10:01:16.985Z,14.9
2019-03-31T10:02:17.096Z,17
2019-03-31T10:03:17.202Z,16.5
2019-03-31T10:04:17.240Z,18.700001
2019-03-31T10:05:17.301Z,17.700001
2019-03-31T10:06:29.457Z,16.1
2019-03-31T10:07:18.469Z,16.9
2019-03-31T10:08:21.434Z,16.700001
2019-03-31T10:09:18.495Z,18.9
2019-03-31T10:10:17.542Z,20.9
2019-03-31T10:11:17.595Z,19.200001
2019-03-31T10:12:17.617Z,18.9
2019-03-31T10:13:17.692Z,18.5
2019-03-31T10:14:17.743Z,17.1
2019-03-31T10:15:17.882Z,15.6
2019-03-31T10:16:17.892Z,16.1
2019-03-31T10:17:17.918Z,15.4
2019-03-31T10:18:18.403Z,16.5
2019-03-31T10:19:18.159Z,17.700001
2019-03-31T10:20:18.254Z,17.4
2019-03-31T10:21:18.294Z,16.4
2019-03-31T10:22:18.339Z,17.9
2019-03-31T10:23:18.436Z,16.700001
2019-03-31T10:24:18.481Z,16.9
2019-03-31T10:25:18.542Z,18
2019-03-31T10:26:30.916Z,15.1
2019-03-31T10:27:19.574Z,17.299999
2019-03-31T10:28:18.682Z,16.799999
2019-03-31T10:29:18.694Z,17.6
2019-03-31T10:30:18.815Z,17
2019-03-31T10:31:18.991Z,16.700001
2019-03-31T10:32:19.060Z,15.4
2019-03-31T10:33:19.164Z,19.6
2019-03-31T10:34:19.228Z,16.4
2019-03-31T10:35:19.266Z,16.700001
2019-03-31T10:36:19.318Z,14.9
2019-03-31T10:37:19.370Z,15.6
2019-03-31T10:38:19.437Z,19
2019-03-31T10:39:20.503Z,17.1
2019-03-31T10:40:19.529Z,20.5
2019-03-31T10:41:19.637Z,16.5
2019-03-31T10:42:19.662Z,18.6
2019-03-31T10:43:19.707Z,21.6
2019-03-31T10:44:19.776Z,18.6
2019-03-31T10:45:19.830Z,21.799999
2019-03-31T10:46:19.886Z,20.799999
2019-03-31T10:47:19.939Z,21.5
2019-03-31T10:48:21.109Z,19.200001
2019-03-31T10:49:21.016Z,20.700001
2019-03-31T10:50:20.058Z,19.5
2019-03-31T10:51:20.123Z,17.799999
2019-03-31T10:52:20.209Z,19.6
2019-03-31T10:53:20.257Z,19.5
2019-03-31T10:54:20.328Z,17
2019-03-31T10:55:20.374Z,18.1
2019-03-31T10:56:20.421Z,17.6
2019-03-31T10:57:20.462Z,18
2019-03-31T10:58:20.502Z,18.5
2019-03-31T10:59:20.605Z,18.700001
2019-03-31T11:00:20.678Z,16.4
2019-03-31T11:01:20.722Z,17.1
2019-03-31T11:02:20.784Z,18.4
2019-03-31T11:03:20.828Z,20.6
2019-03-31T11:04:20.896Z,17.9
2019-03-31T11:05:20.982Z,19.4
2019-03-31T11:06:21.032Z,16.700001
2019-03-31T11:07:21.105Z,16.9
2019-03-31T11:08:21.164Z,19.799999
2019-03-31T11:09:21.233Z,18.299999
2019-03-31T11:10:21.295Z,18
2019-03-31T11:11:21.340Z,18.299999
2019-03-31T11:12:21.384Z,20.799999
2019-03-31T11:13:21.950Z,15.8
2019-03-31T11:14:21.513Z,18.4
2019-03-31T11:15:21.559Z,18.6
2019-03-31T11:16:21.637Z,21.5
2019-03-31T11:17:21.680Z,20.299999
2019-03-31T11:18:21.806Z,21.299999
2019-03-31T11:19:21.856Z,23.6
2019-03-31T11:20:21.859Z,19.5
2019-03-31T11:21:22.010Z,23.1
2019-03-31T11:22:21.911Z,20.1
2019-03-31T11:23:21.991Z,18.1
2019-03-31T11:24:22.093Z,19.9
2019-03-31T11:25:25.327Z,19
2019-03-31T11:26:23.146Z,20
2019-03-31T11:27:22.165Z,18.6
2019-03-31T11:28:22.211Z,19.4
2019-03-31T11:29:22.390Z,20.9
2019-03-31T11:30:22.400Z,18.9
2019-03-31T11:31:22.543Z,18.1
2019-03-31T11:32:22.612Z,17.9
2019-03-31T11:33:22.708Z,17.5
2019-03-31T11:34:22.865Z,16.9
2019-03-31T11:35:22.901Z,14.4
2019-03-31T11:36:22.947Z,17.9
2019-03-31T11:37:22.941Z,15.9
2019-03-31T11:38:22.948Z,16.200001
2019-03-31T11:39:23.021Z,15.2
2019-03-31T11:40:23.015Z,13.2
2019-03-31T11:41:23.185Z,16.799999
2019-03-31T11:42:23.260Z,16
2019-03-31T11:43:23.410Z,15.4
2019-03-31T11:44:23.605Z,12.4
2019-03-31T11:45:23.590Z,13.6
2019-03-31T11:46:23.772Z,12.2
2019-03-31T11:47:23.759Z,12.5
2019-03-31T11:48:23.880Z,11.4
2019-03-31T11:49:23.992Z,12.2
2019-03-31T11:50:24.007Z,24.5
2019-03-31T11:51:24.086Z,13.4
2019-03-31T11:52:24.128Z,17.4
2019-03-31T11:53:24.212Z,15.1
2019-03-31T11:54:24.309Z,14.1
2019-03-31T11:55:24.468Z,15.1
2019-03-31T11:56:24.524Z,15.2
2019-03-31T11:57:24.614Z,13.3
2019-03-31T11:58:24.730Z,11.8
2019-03-31T11:59:24.979Z,14.1
2019-03-31T12:00:24.969Z,16.6
2019-03-31T12:01:25.015Z,21.5
2019-03-31T12:02:27.175Z,17.4
2019-03-31T12:03:26.102Z,19.200001
2019-03-31T12:04:25.167Z,13.1
2019-03-31T12:05:25.118Z,13.6
2019-03-31T12:06:25.170Z,11.5
2019-03-31T12:07:28.055Z,13.2
2019-03-31T12:08:26.198Z,12.3
2019-03-31T12:09:25.341Z,13.7
2019-03-31T12:10:25.369Z,12.7
2019-03-31T12:11:25.415Z,12.2
2019-03-31T12:12:25.463Z,11.1
2019-03-31T12:13:25.514Z,10.1
2019-03-31T12:14:25.603Z,11.1